Korbel, California
Current Conditions -  °F | °C
As of 4:53 AM on Friday 24 Oct 2014 (Local Time) from KACV Reporting Station
Light Rain Light Rain  
Wind Chill: 55°   Ceiling: 3700
Heat Index: 55°   Visibility: 2.5mi
Dew Point: 54°   Wind: 3mph
Humidity: 96%   Direction: 50°NE
Pressure: 29.93"   Gusts: NA
Location:  40.87°N, 123.96°W
Report Text: KACV 241153Z AUTO 05003KT 2 1/2SM -RA BR OVC037 13/12 A2993 RMK AO2 SLP138 P0005 60020 70086 T01280122 10139 20128 56019
Loading
Personal Weather Stations






























Interactive Weather Map
Tropical Storm Tracking
New forecast layout! Learn more

10-Day Weather Forecast

Advertisements
Track Severe Weather on mobile